Terminal Aerodrome Forecast
Issued by NWS Charleston, WV

Home | Current Version | Previous Version | Text Only | Print | Product List | Glossary On
Versions: 1 2 3 4 5 6 7 8 9 10 11 12 13 14 15 16 17 18 19 20 21 22 23 24
000
FTUS41 KRLX 241100
TAFCRW
TAF
KCRW 241136Z 2412/2512 01005KT 6SM BR VCSH SCT001 OVC008
      TEMPO 2412/2414 5SM -SHRA
     FM241500 35005KT 6SM BR OVC018
     FM241700 34005KT P6SM OVC025
     FM242100 34006KT P6SM BKN030
     FM250000 00000KT P6SM SCT040
     FM250500 00000KT 5SM BR SCT001
     FM250700 00000KT 1SM BR BKN001=

USA.gov is the U.S. government's official web portal to all federal, state and local government web resources and services.